Weather at Vanua Balavu Airport

Public forecast

Using degrees Celsius for public forecast. Weather courtesy of forecast.io.

Closest aviation weather report (METAR) to Vanua Balavu Airport

Report is more than 2 hours old.

Closest report is Matei Airport, 62.3 nm (115.4 km) WNW. Retrieved 2022/01/16 20:00 UTC (5 hours ago):

NFNM 162000Z 12005KT 9999 -SHRA SCT020 SCT048 27/25 Q////

Closest aviation forecast (TAF) to Vanua Balavu Airport

Closest forecast is Nausori International Airport, 148.5 nm (275.0 km) WSW. Retrieved 2022-01-17 00:00 UTC (58 minutes ago):

TAF NFNA 162326Z 1700/1724 20006KT 9999-SHRA BKN017 TEMPO 1700/1724 5000 TSRA BKN015 FEW018CB